sensor_id;sensor_type;location;lat;lon;timestamp;P1;durP1;ratioP1;P2;durP2;ratioP2
1625;SDS011;806;48.770;9.156;2023-12-20T00:02:09;0.60;;;0.30;;
1625;SDS011;806;48.770;9.156;2023-12-20T00:04:36;0.47;;;0.25;;
1625;SDS011;806;48.770;9.156;2023-12-20T00:07:03;0.60;;;0.30;;
1625;SDS011;806;48.770;9.156;2023-12-20T00:09:31;0.40;;;0.20;;
1625;SDS011;806;48.770;9.156;2023-12-20T00:11:58;0.50;;;0.30;;
1625;SDS011;806;48.770;9.156;2023-12-20T00:14:25;0.50;;;0.30;;
1625;SDS011;806;48.770;9.156;2023-12-20T00:16:52;0.80;;;0.30;;
1625;SDS011;806;48.770;9.156;2023-12-20T00:19:19;0.80;;;0.20;;
1625;SDS011;806;48.770;9.156;2023-12-20T00:21:47;0.45;;;0.30;;
1625;SDS011;806;48.770;9.156;2023-12-20T00:24:14;0.60;;;0.30;;
1625;SDS011;806;48.770;9.156;2023-12-20T00:26:43;0.60;;;0.20;;
1625;SDS011;806;48.770;9.156;2023-12-20T00:29:10;0.70;;;0.28;;
1625;SDS011;806;48.770;9.156;2023-12-20T00:31:37;0.50;;;0.30;;
1625;SDS011;806;48.770;9.156;2023-12-20T00:34:04;0.60;;;0.30;;
1625;SDS011;806;48.770;9.156;2023-12-20T00:36:31;0.50;;;0.20;;
1625;SDS011;806;48.770;9.156;2023-12-20T00:38:58;0.50;;;0.27;;
1625;SDS011;806;48.770;9.156;2023-12-20T00:41:25;0.50;;;0.30;;
1625;SDS011;806;48.770;9.156;2023-12-20T00:43:54;0.60;;;0.30;;
1625;SDS011;806;48.770;9.156;2023-12-20T00:46:21;0.50;;;0.30;;
1625;SDS011;806;48.770;9.156;2023-12-20T00:48:48;0.50;;;0.30;;
1625;SDS011;806;48.770;9.156;2023-12-20T00:51:15;0.90;;;0.30;;
1625;SDS011;806;48.770;9.156;2023-12-20T00:53:42;0.50;;;0.20;;
1625;SDS011;806;48.770;9.156;2023-12-20T00:56:09;0.60;;;0.30;;
1625;SDS011;806;48.770;9.156;2023-12-20T00:58:36;0.50;;;0.30;;
1625;SDS011;806;48.770;9.156;2023-12-20T01:01:05;0.50;;;0.30;;
1625;SDS011;806;48.770;9.156;2023-12-20T01:03:32;1.10;;;0.30;;
1625;SDS011;806;48.770;9.156;2023-12-20T01:05:59;0.40;;;0.20;;
1625;SDS011;806;48.770;9.156;2023-12-20T01:08:26;0.40;;;0.20;;
1625;SDS011;806;48.770;9.156;2023-12-20T01:10:53;0.40;;;0.20;;
1625;SDS011;806;48.770;9.156;2023-12-20T01:13:21;0.45;;;0.20;;
1625;SDS011;806;48.770;9.156;2023-12-20T01:15:48;0.50;;;0.22;;
1625;SDS011;806;48.770;9.156;2023-12-20T01:18:16;0.50;;;0.30;;
1625;SDS011;806;48.770;9.156;2023-12-20T01:20:43;0.60;;;0.30;;
1625;SDS011;806;48.770;9.156;2023-12-20T01:23:10;0.70;;;0.30;;
1625;SDS011;806;48.770;9.156;2023-12-20T01:25:38;0.50;;;0.30;;
1625;SDS011;806;48.770;9.156;2023-12-20T01:28:06;0.50;;;0.20;;
1625;SDS011;806;48.770;9.156;2023-12-20T01:30:33;0.47;;;0.20;;
1625;SDS011;806;48.770;9.156;2023-12-20T01:33:00;0.50;;;0.30;;
1625;SDS011;806;48.770;9.156;2023-12-20T01:35:29;0.60;;;0.20;;
1625;SDS011;806;48.770;9.156;2023-12-20T01:37:56;0.40;;;0.20;;
1625;SDS011;806;48.770;9.156;2023-12-20T01:40:23;0.50;;;0.30;;
1625;SDS011;806;48.770;9.156;2023-12-20T01:42:57;0.70;;;0.20;;
1625;SDS011;806;48.770;9.156;2023-12-20T01:45:25;0.63;;;0.20;;
1625;SDS011;806;48.770;9.156;2023-12-20T01:47:52;0.50;;;0.28;;
1625;SDS011;806;48.770;9.156;2023-12-20T01:50:21;0.50;;;0.20;;
1625;SDS011;806;48.770;9.156;2023-12-20T01:52:49;0.38;;;0.20;;
1625;SDS011;806;48.770;9.156;2023-12-20T01:55:18;1.00;;;0.30;;
1625;SDS011;806;48.770;9.156;2023-12-20T01:57:45;0.40;;;0.20;;
1625;SDS011;806;48.770;9.156;2023-12-20T02:00:13;0.70;;;0.25;;
1625;SDS011;806;48.770;9.156;2023-12-20T02:02:41;0.50;;;0.20;;
1625;SDS011;806;48.770;9.156;2023-12-20T02:05:11;0.60;;;0.28;;
1625;SDS011;806;48.770;9.156;2023-12-20T02:07:38;0.50;;;0.20;;
1625;SDS011;806;48.770;9.156;2023-12-20T02:10:07;0.60;;;0.30;;
1625;SDS011;806;48.770;9.156;2023-12-20T02:12:34;0.93;;;0.30;;
1625;SDS011;806;48.770;9.156;2023-12-20T02:15:02;0.50;;;0.30;;
1625;SDS011;806;48.770;9.156;2023-12-20T02:17:29;0.60;;;0.30;;
1625;SDS011;806;48.770;9.156;2023-12-20T02:19:57;0.70;;;0.30;;
1625;SDS011;806;48.770;9.156;2023-12-20T02:22:26;1.20;;;0.30;;
1625;SDS011;806;48.770;9.156;2023-12-20T02:24:53;1.03;;;0.30;;
1625;SDS011;806;48.770;9.156;2023-12-20T02:27:20;0.90;;;0.30;;
1625;SDS011;806;48.770;9.156;2023-12-20T02:29:49;0.50;;;0.20;;
1625;SDS011;806;48.770;9.156;2023-12-20T02:32:17;0.50;;;0.20;;
1625;SDS011;806;48.770;9.156;2023-12-20T02:34:46;0.50;;;0.20;;
1625;SDS011;806;48.770;9.156;2023-12-20T02:37:14;1.30;;;0.25;;
1625;SDS011;806;48.770;9.156;2023-12-20T02:39:42;0.50;;;0.20;;
1625;SDS011;806;48.770;9.156;2023-12-20T02:42:10;0.40;;;0.20;;
1625;SDS011;806;48.770;9.156;2023-12-20T02:44:37;0.50;;;0.20;;
1625;SDS011;806;48.770;9.156;2023-12-20T02:47:04;0.40;;;0.20;;
1625;SDS011;806;48.770;9.156;2023-12-20T02:49:31;0.50;;;0.20;;
1625;SDS011;806;48.770;9.156;2023-12-20T02:51:58;0.40;;;0.20;;
1625;SDS011;806;48.770;9.156;2023-12-20T02:54:25;0.40;;;0.20;;
1625;SDS011;806;48.770;9.156;2023-12-20T02:56:53;0.40;;;0.20;;
1625;SDS011;806;48.770;9.156;2023-12-20T02:59:20;0.50;;;0.22;;
1625;SDS011;806;48.770;9.156;2023-12-20T03:01:47;0.60;;;0.20;;
1625;SDS011;806;48.770;9.156;2023-12-20T03:04:14;0.30;;;0.20;;
1625;SDS011;806;48.770;9.156;2023-12-20T03:06:42;0.60;;;0.20;;
1625;SDS011;806;48.770;9.156;2023-12-20T03:09:09;0.50;;;0.20;;
1625;SDS011;806;48.770;9.156;2023-12-20T03:11:36;0.40;;;0.20;;
1625;SDS011;806;48.770;9.156;2023-12-20T03:14:04;0.70;;;0.20;;
1625;SDS011;806;48.770;9.156;2023-12-20T03:16:31;0.50;;;0.20;;
1625;SDS011;806;48.770;9.156;2023-12-20T03:18:58;0.45;;;0.20;;
1625;SDS011;806;48.770;9.156;2023-12-20T03:21:25;0.30;;;0.20;;
1625;SDS011;806;48.770;9.156;2023-12-20T03:23:52;0.47;;;0.20;;
1625;SDS011;806;48.770;9.156;2023-12-20T03:26:19;0.40;;;0.20;;
1625;SDS011;806;48.770;9.156;2023-12-20T03:28:47;0.60;;;0.20;;
1625;SDS011;806;48.770;9.156;2023-12-20T03:31:16;0.40;;;0.20;;
1625;SDS011;806;48.770;9.156;2023-12-20T03:33:43;0.30;;;0.10;;
1625;SDS011;806;48.770;9.156;2023-12-20T03:36:10;0.40;;;0.10;;
1625;SDS011;806;48.770;9.156;2023-12-20T03:38:37;0.80;;;0.10;;
1625;SDS011;806;48.770;9.156;2023-12-20T03:41:04;0.38;;;0.10;;
1625;SDS011;806;48.770;9.156;2023-12-20T03:43:31;0.30;;;0.10;;
1625;SDS011;806;48.770;9.156;2023-12-20T03:45:58;0.30;;;0.10;;
1625;SDS011;806;48.770;9.156;2023-12-20T03:48:27;0.30;;;0.10;;
1625;SDS011;806;48.770;9.156;2023-12-20T03:50:54;0.40;;;0.10;;
1625;SDS011;806;48.770;9.156;2023-12-20T03:53:21;0.30;;;0.10;;
1625;SDS011;806;48.770;9.156;2023-12-20T03:55:48;0.30;;;0.10;;
1625;SDS011;806;48.770;9.156;2023-12-20T03:58:15;0.30;;;0.10;;
1625;SDS011;806;48.770;9.156;2023-12-20T04:00:42;0.30;;;0.10;;
1625;SDS011;806;48.770;9.156;2023-12-20T04:03:09;0.30;;;0.10;;
1625;SDS011;806;48.770;9.156;2023-12-20T04:05:39;0.30;;;0.10;;
1625;SDS011;806;48.770;9.156;2023-12-20T04:08:07;0.30;;;0.10;;
1625;SDS011;806;48.770;9.156;2023-12-20T04:10:34;0.30;;;0.10;;
1625;SDS011;806;48.770;9.156;2023-12-20T04:13:02;0.40;;;0.10;;
1625;SDS011;806;48.770;9.156;2023-12-20T04:15:29;0.30;;;0.10;;
1625;SDS011;806;48.770;9.156;2023-12-20T04:17:56;0.30;;;0.10;;
1625;SDS011;806;48.770;9.156;2023-12-20T04:20:24;0.30;;;0.10;;
1625;SDS011;806;48.770;9.156;2023-12-20T04:22:52;0.30;;;0.10;;
1625;SDS011;806;48.770;9.156;2023-12-20T04:25:19;0.50;;;0.10;;
1625;SDS011;806;48.770;9.156;2023-12-20T04:27:46;0.30;;;0.10;;
1625;SDS011;806;48.770;9.156;2023-12-20T04:30:13;0.30;;;0.10;;
1625;SDS011;806;48.770;9.156;2023-12-20T04:32:40;0.30;;;0.10;;
1625;SDS011;806;48.770;9.156;2023-12-20T04:35:08;0.30;;;0.10;;
1625;SDS011;806;48.770;9.156;2023-12-20T04:37:35;0.30;;;0.10;;
1625;SDS011;806;48.770;9.156;2023-12-20T04:40:03;0.30;;;0.10;;
1625;SDS011;806;48.770;9.156;2023-12-20T04:42:32;0.30;;;0.10;;
1625;SDS011;806;48.770;9.156;2023-12-20T04:44:59;0.40;;;0.10;;
1625;SDS011;806;48.770;9.156;2023-12-20T04:47:26;0.30;;;0.10;;
1625;SDS011;806;48.770;9.156;2023-12-20T04:49:54;0.30;;;0.10;;
1625;SDS011;806;48.770;9.156;2023-12-20T04:52:21;0.30;;;0.10;;
1625;SDS011;806;48.770;9.156;2023-12-20T04:54:48;0.30;;;0.10;;
1625;SDS011;806;48.770;9.156;2023-12-20T04:57:17;0.30;;;0.10;;
1625;SDS011;806;48.770;9.156;2023-12-20T04:59:44;0.30;;;0.10;;
1625;SDS011;806;48.770;9.156;2023-12-20T05:02:11;1.23;;;0.10;;
1625;SDS011;806;48.770;9.156;2023-12-20T05:04:38;0.30;;;0.10;;
1625;SDS011;806;48.770;9.156;2023-12-20T05:07:05;0.30;;;0.10;;
1625;SDS011;806;48.770;9.156;2023-12-20T05:09:32;0.30;;;0.10;;
1625;SDS011;806;48.770;9.156;2023-12-20T05:11:59;0.30;;;0.10;;
1625;SDS011;806;48.770;9.156;2023-12-20T05:14:28;0.30;;;0.10;;
1625;SDS011;806;48.770;9.156;2023-12-20T05:16:55;0.30;;;0.10;;
1625;SDS011;806;48.770;9.156;2023-12-20T05:19:22;0.30;;;0.10;;
1625;SDS011;806;48.770;9.156;2023-12-20T05:21:49;0.30;;;0.10;;
1625;SDS011;806;48.770;9.156;2023-12-20T05:24:17;0.30;;;0.10;;
1625;SDS011;806;48.770;9.156;2023-12-20T05:26:44;0.30;;;0.10;;
1625;SDS011;806;48.770;9.156;2023-12-20T05:29:11;0.30;;;0.10;;
1625;SDS011;806;48.770;9.156;2023-12-20T05:31:39;0.30;;;0.10;;
1625;SDS011;806;48.770;9.156;2023-12-20T05:34:06;1.05;;;0.10;;
1625;SDS011;806;48.770;9.156;2023-12-20T05:36:33;0.30;;;0.10;;
1625;SDS011;806;48.770;9.156;2023-12-20T05:39:01;0.30;;;0.10;;
1625;SDS011;806;48.770;9.156;2023-12-20T05:41:28;0.30;;;0.10;;
1625;SDS011;806;48.770;9.156;2023-12-20T05:43:55;0.30;;;0.10;;
1625;SDS011;806;48.770;9.156;2023-12-20T05:46:23;0.30;;;0.10;;
1625;SDS011;806;48.770;9.156;2023-12-20T05:48:51;0.30;;;0.10;;
1625;SDS011;806;48.770;9.156;2023-12-20T05:51:18;0.30;;;0.10;;
1625;SDS011;806;48.770;9.156;2023-12-20T05:53:45;0.30;;;0.10;;
1625;SDS011;806;48.770;9.156;2023-12-20T05:56:14;0.30;;;0.10;;
1625;SDS011;806;48.770;9.156;2023-12-20T05:58:42;0.30;;;0.10;;
1625;SDS011;806;48.770;9.156;2023-12-20T06:01:09;0.30;;;0.10;;
1625;SDS011;806;48.770;9.156;2023-12-20T06:03:37;0.40;;;0.10;;
1625;SDS011;806;48.770;9.156;2023-12-20T06:06:09;0.30;;;0.10;;
1625;SDS011;806;48.770;9.156;2023-12-20T06:08:37;0.30;;;0.10;;
1625;SDS011;806;48.770;9.156;2023-12-20T06:11:05;0.30;;;0.10;;
1625;SDS011;806;48.770;9.156;2023-12-20T06:13:32;0.30;;;0.10;;
1625;SDS011;806;48.770;9.156;2023-12-20T06:15:59;0.30;;;0.10;;
1625;SDS011;806;48.770;9.156;2023-12-20T06:18:26;0.30;;;0.10;;
1625;SDS011;806;48.770;9.156;2023-12-20T06:20:54;0.30;;;0.10;;
1625;SDS011;806;48.770;9.156;2023-12-20T06:23:23;0.40;;;0.10;;
1625;SDS011;806;48.770;9.156;2023-12-20T06:25:50;0.30;;;0.10;;
1625;SDS011;806;48.770;9.156;2023-12-20T06:28:17;0.40;;;0.10;;
1625;SDS011;806;48.770;9.156;2023-12-20T06:30:44;0.30;;;0.10;;
1625;SDS011;806;48.770;9.156;2023-12-20T06:33:14;0.30;;;0.10;;
1625;SDS011;806;48.770;9.156;2023-12-20T06:35:43;0.30;;;0.10;;
1625;SDS011;806;48.770;9.156;2023-12-20T06:38:10;0.40;;;0.10;;
1625;SDS011;806;48.770;9.156;2023-12-20T06:40:42;0.40;;;0.10;;
1625;SDS011;806;48.770;9.156;2023-12-20T06:43:09;0.40;;;0.20;;
1625;SDS011;806;48.770;9.156;2023-12-20T06:45:36;0.40;;;0.10;;
1625;SDS011;806;48.770;9.156;2023-12-20T06:48:04;0.35;;;0.10;;
1625;SDS011;806;48.770;9.156;2023-12-20T06:50:31;0.30;;;0.10;;
1625;SDS011;806;48.770;9.156;2023-12-20T06:52:59;0.40;;;0.20;;
1625;SDS011;806;48.770;9.156;2023-12-20T06:55:31;0.40;;;0.10;;
1625;SDS011;806;48.770;9.156;2023-12-20T06:58:00;0.30;;;0.10;;
1625;SDS011;806;48.770;9.156;2023-12-20T07:00:27;1.30;;;0.10;;
1625;SDS011;806;48.770;9.156;2023-12-20T07:02:54;0.70;;;0.10;;
1625;SDS011;806;48.770;9.156;2023-12-20T07:05:21;0.40;;;0.10;;
1625;SDS011;806;48.770;9.156;2023-12-20T07:07:48;1.10;;;0.20;;
1625;SDS011;806;48.770;9.156;2023-12-20T07:10:15;0.40;;;0.10;;
1625;SDS011;806;48.770;9.156;2023-12-20T07:12:42;0.30;;;0.10;;
1625;SDS011;806;48.770;9.156;2023-12-20T07:15:11;1.20;;;0.20;;
1625;SDS011;806;48.770;9.156;2023-12-20T07:17:38;0.40;;;0.10;;
1625;SDS011;806;48.770;9.156;2023-12-20T07:20:08;0.40;;;0.10;;
1625;SDS011;806;48.770;9.156;2023-12-20T07:22:36;0.45;;;0.20;;
1625;SDS011;806;48.770;9.156;2023-12-20T07:25:04;0.47;;;0.20;;
1625;SDS011;806;48.770;9.156;2023-12-20T07:27:32;0.40;;;0.20;;
1625;SDS011;806;48.770;9.156;2023-12-20T07:30:00;0.80;;;0.20;;
1625;SDS011;806;48.770;9.156;2023-12-20T07:32:29;0.93;;;0.20;;
1625;SDS011;806;48.770;9.156;2023-12-20T07:34:57;0.40;;;0.20;;
1625;SDS011;806;48.770;9.156;2023-12-20T07:37:24;0.45;;;0.20;;
1625;SDS011;806;48.770;9.156;2023-12-20T07:39:51;0.40;;;0.20;;
1625;SDS011;806;48.770;9.156;2023-12-20T07:42:18;0.40;;;0.20;;
1625;SDS011;806;48.770;9.156;2023-12-20T07:44:47;0.52;;;0.30;;
1625;SDS011;806;48.770;9.156;2023-12-20T07:47:14;0.60;;;0.30;;
1625;SDS011;806;48.770;9.156;2023-12-20T07:49:45;0.70;;;0.32;;
1625;SDS011;806;48.770;9.156;2023-12-20T07:52:12;0.60;;;0.30;;
1625;SDS011;806;48.770;9.156;2023-12-20T07:54:40;0.60;;;0.40;;
1625;SDS011;806;48.770;9.156;2023-12-20T07:57:07;0.80;;;0.40;;
1625;SDS011;806;48.770;9.156;2023-12-20T07:59:35;0.70;;;0.40;;
1625;SDS011;806;48.770;9.156;2023-12-20T08:02:02;0.80;;;0.40;;
1625;SDS011;806;48.770;9.156;2023-12-20T08:04:30;0.67;;;0.40;;
1625;SDS011;806;48.770;9.156;2023-12-20T08:06:59;1.10;;;0.38;;
1625;SDS011;806;48.770;9.156;2023-12-20T08:09:26;0.60;;;0.40;;
1625;SDS011;806;48.770;9.156;2023-12-20T08:11:53;0.73;;;0.40;;
1625;SDS011;806;48.770;9.156;2023-12-20T08:14:20;0.70;;;0.40;;
1625;SDS011;806;48.770;9.156;2023-12-20T08:16:48;0.65;;;0.40;;
1625;SDS011;806;48.770;9.156;2023-12-20T08:19:15;0.70;;;0.40;;
1625;SDS011;806;48.770;9.156;2023-12-20T08:21:42;0.80;;;0.40;;
1625;SDS011;806;48.770;9.156;2023-12-20T08:24:11;1.10;;;0.40;;
1625;SDS011;806;48.770;9.156;2023-12-20T08:26:38;0.80;;;0.40;;
1625;SDS011;806;48.770;9.156;2023-12-20T08:29:04;0.75;;;0.40;;
1625;SDS011;806;48.770;9.156;2023-12-20T08:31:31;0.83;;;0.40;;
1625;SDS011;806;48.770;9.156;2023-12-20T08:33:59;0.60;;;0.40;;
1625;SDS011;806;48.770;9.156;2023-12-20T08:36:26;1.50;;;0.40;;
1625;SDS011;806;48.770;9.156;2023-12-20T08:38:53;0.60;;;0.30;;
1625;SDS011;806;48.770;9.156;2023-12-20T08:41:21;0.60;;;0.40;;
1625;SDS011;806;48.770;9.156;2023-12-20T08:43:49;0.60;;;0.32;;
1625;SDS011;806;48.770;9.156;2023-12-20T08:46:16;0.60;;;0.35;;
1625;SDS011;806;48.770;9.156;2023-12-20T08:48:43;0.80;;;0.40;;
1625;SDS011;806;48.770;9.156;2023-12-20T08:51:13;0.60;;;0.40;;
1625;SDS011;806;48.770;9.156;2023-12-20T08:53:41;1.10;;;0.40;;
1625;SDS011;806;48.770;9.156;2023-12-20T08:56:10;1.00;;;0.50;;
1625;SDS011;806;48.770;9.156;2023-12-20T08:58:38;1.27;;;0.40;;
1625;SDS011;806;48.770;9.156;2023-12-20T09:01:05;1.10;;;0.40;;
1625;SDS011;806;48.770;9.156;2023-12-20T09:03:33;0.70;;;0.40;;
1625;SDS011;806;48.770;9.156;2023-12-20T09:06:00;0.90;;;0.50;;
1625;SDS011;806;48.770;9.156;2023-12-20T09:08:27;1.70;;;0.50;;
1625;SDS011;806;48.770;9.156;2023-12-20T09:10:54;0.90;;;0.50;;
1625;SDS011;806;48.770;9.156;2023-12-20T09:13:21;0.87;;;0.50;;
1625;SDS011;806;48.770;9.156;2023-12-20T09:15:54;0.90;;;0.50;;
1625;SDS011;806;48.770;9.156;2023-12-20T09:18:21;2.00;;;0.50;;
1625;SDS011;806;48.770;9.156;2023-12-20T09:20:49;0.65;;;0.40;;
1625;SDS011;806;48.770;9.156;2023-12-20T09:23:16;1.30;;;0.50;;
1625;SDS011;806;48.770;9.156;2023-12-20T09:25:43;0.73;;;0.40;;
1625;SDS011;806;48.770;9.156;2023-12-20T09:28:10;1.30;;;0.40;;
1625;SDS011;806;48.770;9.156;2023-12-20T09:30:37;0.70;;;0.40;;
1625;SDS011;806;48.770;9.156;2023-12-20T09:33:06;0.70;;;0.40;;
1625;SDS011;806;48.770;9.156;2023-12-20T09:35:34;0.70;;;0.50;;
1625;SDS011;806;48.770;9.156;2023-12-20T09:38:01;0.55;;;0.30;;
1625;SDS011;806;48.770;9.156;2023-12-20T09:40:28;0.70;;;0.40;;
1625;SDS011;806;48.770;9.156;2023-12-20T09:42:57;0.90;;;0.40;;
1625;SDS011;806;48.770;9.156;2023-12-20T09:45:25;1.30;;;0.30;;
1625;SDS011;806;48.770;9.156;2023-12-20T09:47:53;1.90;;;0.30;;
1625;SDS011;806;48.770;9.156;2023-12-20T09:50:21;0.70;;;0.30;;
1625;SDS011;806;48.770;9.156;2023-12-20T09:52:49;0.80;;;0.40;;
1625;SDS011;806;48.770;9.156;2023-12-20T09:55:17;1.90;;;0.60;;
1625;SDS011;806;48.770;9.156;2023-12-20T09:57:45;0.70;;;0.40;;
1625;SDS011;806;48.770;9.156;2023-12-20T10:00:13;0.68;;;0.28;;
1625;SDS011;806;48.770;9.156;2023-12-20T10:02:42;0.90;;;0.30;;
1625;SDS011;806;48.770;9.156;2023-12-20T10:05:16;1.10;;;0.30;;
1625;SDS011;806;48.770;9.156;2023-12-20T10:07:46;1.20;;;0.30;;
1625;SDS011;806;48.770;9.156;2023-12-20T10:10:13;1.10;;;0.40;;
1625;SDS011;806;48.770;9.156;2023-12-20T10:12:41;1.48;;;0.40;;
1625;SDS011;806;48.770;9.156;2023-12-20T10:15:28;1.50;;;0.30;;
1625;SDS011;806;48.770;9.156;2023-12-20T10:17:56;0.60;;;0.30;;
1625;SDS011;806;48.770;9.156;2023-12-20T10:20:23;0.80;;;0.30;;
1625;SDS011;806;48.770;9.156;2023-12-20T10:22:52;0.50;;;0.30;;
1625;SDS011;806;48.770;9.156;2023-12-20T10:25:19;1.27;;;0.30;;
1625;SDS011;806;48.770;9.156;2023-12-20T10:27:49;0.40;;;0.20;;
1625;SDS011;806;48.770;9.156;2023-12-20T10:30:16;0.60;;;0.30;;
1625;SDS011;806;48.770;9.156;2023-12-20T10:32:43;0.60;;;0.30;;
1625;SDS011;806;48.770;9.156;2023-12-20T10:35:10;1.30;;;0.30;;
1625;SDS011;806;48.770;9.156;2023-12-20T10:37:38;0.70;;;0.30;;
1625;SDS011;806;48.770;9.156;2023-12-20T10:40:07;0.80;;;0.30;;
1625;SDS011;806;48.770;9.156;2023-12-20T10:42:35;1.00;;;0.30;;
1625;SDS011;806;48.770;9.156;2023-12-20T10:45:03;0.80;;;0.30;;
1625;SDS011;806;48.770;9.156;2023-12-20T10:47:31;0.60;;;0.30;;
1625;SDS011;806;48.770;9.156;2023-12-20T10:49:59;0.80;;;0.30;;
1625;SDS011;806;48.770;9.156;2023-12-20T10:52:27;0.50;;;0.30;;
1625;SDS011;806;48.770;9.156;2023-12-20T10:54:56;0.73;;;0.30;;
1625;SDS011;806;48.770;9.156;2023-12-20T10:57:24;1.10;;;0.40;;
1625;SDS011;806;48.770;9.156;2023-12-20T10:59:54;0.97;;;0.30;;
1625;SDS011;806;48.770;9.156;2023-12-20T11:02:29;0.80;;;0.30;;
1625;SDS011;806;48.770;9.156;2023-12-20T11:04:59;1.20;;;0.30;;
1625;SDS011;806;48.770;9.156;2023-12-20T11:07:35;1.60;;;0.30;;
1625;SDS011;806;48.770;9.156;2023-12-20T11:10:10;1.38;;;0.30;;
1625;SDS011;806;48.770;9.156;2023-12-20T11:12:46;0.52;;;0.30;;
1625;SDS011;806;48.770;9.156;2023-12-20T11:15:17;0.70;;;0.30;;
1625;SDS011;806;48.770;9.156;2023-12-20T11:17:45;0.60;;;0.30;;
1625;SDS011;806;48.770;9.156;2023-12-20T11:20:12;0.75;;;0.30;;
1625;SDS011;806;48.770;9.156;2023-12-20T11:22:50;0.60;;;0.30;;
1625;SDS011;806;48.770;9.156;2023-12-20T11:25:20;1.20;;;0.30;;
1625;SDS011;806;48.770;9.156;2023-12-20T11:30:46;1.10;;;0.30;;
1625;SDS011;806;48.770;9.156;2023-12-20T11:33:14;0.73;;;0.30;;
1625;SDS011;806;48.770;9.156;2023-12-20T11:35:41;1.23;;;0.40;;
1625;SDS011;806;48.770;9.156;2023-12-20T11:38:08;1.20;;;0.40;;
1625;SDS011;806;48.770;9.156;2023-12-20T11:40:36;1.00;;;0.30;;
1625;SDS011;806;48.770;9.156;2023-12-20T11:43:03;1.10;;;0.40;;
1625;SDS011;806;48.770;9.156;2023-12-20T11:45:33;1.50;;;0.50;;
1625;SDS011;806;48.770;9.156;2023-12-20T11:48:01;0.80;;;0.30;;
1625;SDS011;806;48.770;9.156;2023-12-20T11:50:28;1.10;;;0.30;;
1625;SDS011;806;48.770;9.156;2023-12-20T11:52:56;1.60;;;0.30;;
1625;SDS011;806;48.770;9.156;2023-12-20T11:55:23;0.50;;;0.25;;
1625;SDS011;806;48.770;9.156;2023-12-20T11:57:51;0.50;;;0.30;;
1625;SDS011;806;48.770;9.156;2023-12-20T12:00:19;0.40;;;0.20;;
1625;SDS011;806;48.770;9.156;2023-12-20T12:02:57;0.90;;;0.20;;
1625;SDS011;806;48.770;9.156;2023-12-20T12:05:26;1.30;;;0.30;;
1625;SDS011;806;48.770;9.156;2023-12-20T12:07:53;0.55;;;0.30;;
1625;SDS011;806;48.770;9.156;2023-12-20T12:10:21;0.90;;;0.30;;
1625;SDS011;806;48.770;9.156;2023-12-20T12:12:48;2.23;;;0.40;;
1625;SDS011;806;48.770;9.156;2023-12-20T12:15:15;1.00;;;0.40;;
1625;SDS011;806;48.770;9.156;2023-12-20T12:17:42;2.00;;;0.30;;
1625;SDS011;806;48.770;9.156;2023-12-20T12:20:11;2.30;;;0.30;;
1625;SDS011;806;48.770;9.156;2023-12-20T12:22:38;1.40;;;0.38;;
1625;SDS011;806;48.770;9.156;2023-12-20T12:25:09;1.10;;;0.30;;
1625;SDS011;806;48.770;9.156;2023-12-20T12:27:39;1.10;;;0.30;;
1625;SDS011;806;48.770;9.156;2023-12-20T12:30:10;1.30;;;0.40;;
1625;SDS011;806;48.770;9.156;2023-12-20T12:32:38;3.20;;;0.35;;
1625;SDS011;806;48.770;9.156;2023-12-20T12:35:07;1.02;;;0.40;;
1625;SDS011;806;48.770;9.156;2023-12-20T12:37:37;0.75;;;0.30;;
1625;SDS011;806;48.770;9.156;2023-12-20T12:40:06;1.50;;;0.38;;
1625;SDS011;806;48.770;9.156;2023-12-20T12:42:36;0.60;;;0.30;;
1625;SDS011;806;48.770;9.156;2023-12-20T12:45:03;0.50;;;0.30;;
1625;SDS011;806;48.770;9.156;2023-12-20T12:47:31;1.70;;;0.40;;
1625;SDS011;806;48.770;9.156;2023-12-20T12:49:58;0.70;;;0.30;;
1625;SDS011;806;48.770;9.156;2023-12-20T12:52:26;0.60;;;0.30;;
1625;SDS011;806;48.770;9.156;2023-12-20T12:54:54;0.93;;;0.30;;
1625;SDS011;806;48.770;9.156;2023-12-20T12:57:21;2.40;;;0.30;;
1625;SDS011;806;48.770;9.156;2023-12-20T12:59:49;1.00;;;0.40;;
1625;SDS011;806;48.770;9.156;2023-12-20T13:02:16;0.90;;;0.30;;
1625;SDS011;806;48.770;9.156;2023-12-20T13:04:43;1.17;;;0.30;;
1625;SDS011;806;48.770;9.156;2023-12-20T13:07:11;0.90;;;0.20;;
1625;SDS011;806;48.770;9.156;2023-12-20T13:09:39;0.50;;;0.30;;
1625;SDS011;806;48.770;9.156;2023-12-20T13:12:08;0.90;;;0.40;;
1625;SDS011;806;48.770;9.156;2023-12-20T13:14:35;1.77;;;0.30;;
1625;SDS011;806;48.770;9.156;2023-12-20T13:17:03;0.47;;;0.30;;
1625;SDS011;806;48.770;9.156;2023-12-20T13:19:31;0.50;;;0.20;;
1625;SDS011;806;48.770;9.156;2023-12-20T13:21:58;1.30;;;0.40;;
1625;SDS011;806;48.770;9.156;2023-12-20T13:24:25;2.00;;;0.50;;
1625;SDS011;806;48.770;9.156;2023-12-20T13:26:52;0.60;;;0.30;;
1625;SDS011;806;48.770;9.156;2023-12-20T13:29:21;1.15;;;0.30;;
1625;SDS011;806;48.770;9.156;2023-12-20T13:31:48;0.50;;;0.20;;
1625;SDS011;806;48.770;9.156;2023-12-20T13:34:16;1.45;;;0.30;;
1625;SDS011;806;48.770;9.156;2023-12-20T13:36:43;1.20;;;0.30;;
1625;SDS011;806;48.770;9.156;2023-12-20T13:39:12;1.70;;;0.30;;
1625;SDS011;806;48.770;9.156;2023-12-20T13:41:40;3.80;;;0.30;;
1625;SDS011;806;48.770;9.156;2023-12-20T13:44:07;1.48;;;0.30;;
1625;SDS011;806;48.770;9.156;2023-12-20T13:46:36;1.30;;;0.30;;
1625;SDS011;806;48.770;9.156;2023-12-20T13:49:03;0.52;;;0.30;;
1625;SDS011;806;48.770;9.156;2023-12-20T13:51:31;1.10;;;0.30;;
1625;SDS011;806;48.770;9.156;2023-12-20T13:53:58;0.70;;;0.30;;
1625;SDS011;806;48.770;9.156;2023-12-20T13:56:25;1.17;;;0.28;;
1625;SDS011;806;48.770;9.156;2023-12-20T13:58:52;0.50;;;0.20;;
1625;SDS011;806;48.770;9.156;2023-12-20T14:01:19;0.88;;;0.30;;
1625;SDS011;806;48.770;9.156;2023-12-20T14:03:47;1.10;;;0.30;;
1625;SDS011;806;48.770;9.156;2023-12-20T14:06:15;0.52;;;0.28;;
1625;SDS011;806;48.770;9.156;2023-12-20T14:08:43;1.00;;;0.30;;
1625;SDS011;806;48.770;9.156;2023-12-20T14:11:10;1.50;;;0.30;;
1625;SDS011;806;48.770;9.156;2023-12-20T14:13:37;0.80;;;0.20;;
1625;SDS011;806;48.770;9.156;2023-12-20T14:16:05;1.30;;;0.30;;
1625;SDS011;806;48.770;9.156;2023-12-20T14:18:32;1.50;;;0.30;;
1625;SDS011;806;48.770;9.156;2023-12-20T14:21:00;2.30;;;0.30;;
1625;SDS011;806;48.770;9.156;2023-12-20T14:23:27;0.63;;;0.20;;
1625;SDS011;806;48.770;9.156;2023-12-20T14:25:54;0.70;;;0.20;;
1625;SDS011;806;48.770;9.156;2023-12-20T14:28:23;0.70;;;0.30;;
1625;SDS011;806;48.770;9.156;2023-12-20T14:30:50;0.50;;;0.20;;
1625;SDS011;806;48.770;9.156;2023-12-20T14:33:17;1.10;;;0.20;;
1625;SDS011;806;48.770;9.156;2023-12-20T14:35:46;2.70;;;0.30;;
1625;SDS011;806;48.770;9.156;2023-12-20T14:38:15;1.80;;;0.30;;
1625;SDS011;806;48.770;9.156;2023-12-20T14:40:42;1.10;;;0.30;;
1625;SDS011;806;48.770;9.156;2023-12-20T14:43:09;0.63;;;0.30;;
1625;SDS011;806;48.770;9.156;2023-12-20T14:45:36;0.90;;;0.30;;
1625;SDS011;806;48.770;9.156;2023-12-20T14:48:04;1.60;;;0.70;;
1625;SDS011;806;48.770;9.156;2023-12-20T14:50:32;2.20;;;0.40;;
1625;SDS011;806;48.770;9.156;2023-12-20T14:52:59;1.52;;;0.40;;
1625;SDS011;806;48.770;9.156;2023-12-20T14:55:27;1.90;;;0.30;;
1625;SDS011;806;48.770;9.156;2023-12-20T14:57:55;1.00;;;0.30;;
1625;SDS011;806;48.770;9.156;2023-12-20T15:00:22;0.57;;;0.20;;
1625;SDS011;806;48.770;9.156;2023-12-20T15:02:49;0.60;;;0.27;;
1625;SDS011;806;48.770;9.156;2023-12-20T15:05:16;0.60;;;0.30;;
1625;SDS011;806;48.770;9.156;2023-12-20T15:07:43;0.50;;;0.20;;
1625;SDS011;806;48.770;9.156;2023-12-20T15:10:12;2.35;;;0.30;;
1625;SDS011;806;48.770;9.156;2023-12-20T15:12:40;0.50;;;0.20;;
1625;SDS011;806;48.770;9.156;2023-12-20T15:15:07;0.70;;;0.40;;
1625;SDS011;806;48.770;9.156;2023-12-20T15:17:35;1.02;;;0.30;;
1625;SDS011;806;48.770;9.156;2023-12-20T15:20:03;0.82;;;0.30;;
1625;SDS011;806;48.770;9.156;2023-12-20T15:22:30;1.20;;;0.30;;
1625;SDS011;806;48.770;9.156;2023-12-20T15:25:00;0.95;;;0.30;;
1625;SDS011;806;48.770;9.156;2023-12-20T15:27:28;0.55;;;0.30;;
1625;SDS011;806;48.770;9.156;2023-12-20T15:29:56;0.50;;;0.22;;
1625;SDS011;806;48.770;9.156;2023-12-20T15:32:23;0.90;;;0.30;;
1625;SDS011;806;48.770;9.156;2023-12-20T15:34:51;0.80;;;0.20;;
1625;SDS011;806;48.770;9.156;2023-12-20T15:37:18;0.70;;;0.30;;